Time;durP1;ratioP1;P1;durP2;ratioP2;P2;SDS_P1;SDS_P2;PMS_P1;PMS_P2;Temp;Humidity;BMP_temperature;BMP_pressure;BME280_temperature;BME280_humidity;BME280_pressure;Samples;Min_cycle;Max_cycle;Signal;HPM_P1;HPM_P2
2021/03/30 00:02:23;;;;;;;15.02;3.00;;;;;;;;;;5231481;27;20050;-84
2021/03/30 00:04:51;;;;;;;11.95;2.70;;;;;;;;;;5231131;27;20080;-83
2021/03/30 00:07:19;;;;;;;10.82;2.62;;;;;;;;;;5231248;27;20033;-85
2021/03/30 00:09:47;;;;;;;9.80;2.03;;;;;;;;;;5234908;27;20025;-83
2021/03/30 00:12:17;;;;;;;11.60;2.30;;;;;;;;;;5232143;27;20045;-84
2021/03/30 00:14:49;;;;;;;9.77;2.72;;;;;;;;;;5232845;27;20092;-85
2021/03/30 00:17:18;;;;;;;9.13;1.98;;;;;;;;;;5231471;27;20579;-83
2021/03/30 00:19:45;;;;;;;12.37;2.17;;;;;;;;;;5234116;27;20034;-85
2021/03/30 00:22:13;;;;;;;9.23;2.30;;;;;;;;;;5231388;27;20029;-84
2021/03/30 00:24:46;;;;;;;12.40;2.35;;;;;;;;;;5223480;27;20062;-84
2021/03/30 00:27:14;;;;;;;9.50;2.40;;;;;;;;;;5226735;27;20036;-84
2021/03/30 00:29:46;;;;;;;14.23;2.42;;;;;;;;;;5228702;27;20510;-85
2021/03/30 00:32:17;;;;;;;12.43;2.40;;;;;;;;;;5231889;27;20049;-84
2021/03/30 00:34:45;;;;;;;15.10;2.85;;;;;;;;;;5233323;27;20031;-84
2021/03/30 00:37:13;;;;;;;17.48;2.87;;;;;;;;;;5227754;27;20413;-83
2021/03/30 00:39:41;;;;;;;10.80;2.47;;;;;;;;;;5229843;27;20062;-84
2021/03/30 00:42:09;;;;;;;14.95;2.90;;;;;;;;;;5223633;27;20369;-84
2021/03/30 00:44:37;;;;;;;13.75;2.95;;;;;;;;;;5233745;27;20325;-85
2021/03/30 00:47:05;;;;;;;14.48;2.85;;;;;;;;;;5231282;27;20026;-84
2021/03/30 00:49:36;;;;;;;16.40;2.53;;;;;;;;;;5230116;27;20360;-84
2021/03/30 00:52:07;;;;;;;14.85;2.67;;;;;;;;;;5232389;27;20037;-83
2021/03/30 00:54:42;;;;;;;9.73;2.58;;;;;;;;;;5234047;27;20315;-84
2021/03/30 00:57:15;;;;;;;13.25;2.60;;;;;;;;;;5233998;27;20057;-84
2021/03/30 00:59:43;;;;;;;15.38;3.05;;;;;;;;;;5232186;27;20076;-83
2021/03/30 01:02:12;;;;;;;16.62;3.10;;;;;;;;;;5233551;27;20028;-84
2021/03/30 01:04:40;;;;;;;25.73;3.45;;;;;;;;;;5231562;27;20615;-84
2021/03/30 01:07:09;;;;;;;15.25;3.20;;;;;;;;;;5229844;27;20444;-84
2021/03/30 01:09:56;;;;;;;17.00;2.85;;;;;;;;;;5231543;27;20698;-84
2021/03/30 01:12:52;;;;;;;11.00;2.97;;;;;;;;;;5232480;27;20037;-84
2021/03/30 01:15:27;;;;;;;9.18;2.70;;;;;;;;;;5226400;27;20472;-84
2021/03/30 01:18:06;;;;;;;14.15;2.85;;;;;;;;;;5228646;27;20023;-84
2021/03/30 01:20:57;;;;;;;23.77;3.80;;;;;;;;;;5232244;27;20042;-84
2021/03/30 01:23:41;;;;;;;17.77;3.28;;;;;;;;;;5232214;27;20031;-84
2021/03/30 01:26:11;;;;;;;17.40;3.35;;;;;;;;;;5229560;27;20036;-83
2021/03/30 01:28:58;;;;;;;21.20;3.50;;;;;;;;;;5229952;27;20030;-84
2021/03/30 01:31:27;;;;;;;13.00;2.72;;;;;;;;;;5231159;27;20021;-85
2021/03/30 01:34:04;;;;;;;12.02;2.40;;;;;;;;;;5232695;27;20161;-84
2021/03/30 01:36:34;;;;;;;13.70;2.30;;;;;;;;;;5229928;27;20411;-84
2021/03/30 01:39:03;;;;;;;13.02;2.92;;;;;;;;;;5230955;27;20329;-84
2021/03/30 01:41:31;;;;;;;12.32;2.30;;;;;;;;;;5233811;27;20443;-84
2021/03/30 01:44:02;;;;;;;11.25;2.72;;;;;;;;;;5230330;27;20507;-85
2021/03/30 01:46:30;;;;;;;16.10;3.20;;;;;;;;;;5228450;27;20076;-85
2021/03/30 01:49:01;;;;;;;14.80;3.22;;;;;;;;;;5223758;27;20035;-84
2021/03/30 01:51:30;;;;;;;14.60;2.80;;;;;;;;;;5232056;27;20026;-83
2021/03/30 01:53:59;;;;;;;10.48;3.10;;;;;;;;;;5228964;27;20512;-84
2021/03/30 01:56:28;;;;;;;15.27;3.45;;;;;;;;;;5229347;27;20036;-84
2021/03/30 01:58:58;;;;;;;15.70;3.08;;;;;;;;;;5224154;27;20050;-84
2021/03/30 02:01:26;;;;;;;15.70;3.20;;;;;;;;;;5232684;27;20076;-84
2021/03/30 02:03:55;;;;;;;15.57;2.60;;;;;;;;;;5220243;27;20050;-84
2021/03/30 02:06:30;;;;;;;18.80;3.10;;;;;;;;;;5229121;27;20740;-84
2021/03/30 02:09:02;;;;;;;10.35;2.70;;;;;;;;;;5232528;27;20400;-83
2021/03/30 02:12:11;;;;;;;19.70;3.28;;;;;;;;;;5231215;27;20428;-84
2021/03/30 02:14:29;;;;;;;18.65;3.40;;;;;;;;;;5225631;27;20042;-84
2021/03/30 02:17:00;;;;;;;27.98;9.95;;;;;;;;;;5228188;27;20050;-85
2021/03/30 02:19:42;;;;;;;39.80;20.77;;;;;;;;;;5226941;27;20015;-84
2021/03/30 02:22:32;;;;;;;38.45;19.70;;;;;;;;;;5228541;27;20444;-83
2021/03/30 02:25:01;;;;;;;23.40;6.80;;;;;;;;;;5228376;27;20011;-84
2021/03/30 02:27:30;;;;;;;31.80;12.63;;;;;;;;;;5230859;27;20349;-84
2021/03/30 02:29:58;;;;;;;60.42;46.75;;;;;;;;;;5231570;27;20030;-84
2021/03/30 02:32:27;;;;;;;32.78;27.90;;;;;;;;;;5232856;27;20026;-83
2021/03/30 02:34:58;;;;;;;11.15;2.78;;;;;;;;;;5229918;27;20496;-83
2021/03/30 02:37:28;;;;;;;13.10;3.00;;;;;;;;;;5227138;27;20027;-84
2021/03/30 02:39:57;;;;;;;31.48;20.83;;;;;;;;;;5222605;27;20078;-83
2021/03/30 02:42:29;;;;;;;27.00;17.30;;;;;;;;;;5229014;27;20077;-84
2021/03/30 02:44:58;;;;;;;44.47;21.60;;;;;;;;;;5202930;27;20030;-84
2021/03/30 02:47:26;;;;;;;42.28;20.70;;;;;;;;;;5228035;27;20075;-84
2021/03/30 02:49:57;;;;;;;41.42;20.70;;;;;;;;;;5231239;27;20049;-84
2021/03/30 02:52:25;;;;;;;26.58;18.10;;;;;;;;;;5231316;27;20053;-83
2021/03/30 02:54:54;;;;;;;24.65;16.70;;;;;;;;;;5230316;27;20036;-84
2021/03/30 02:57:23;;;;;;;31.70;12.73;;;;;;;;;;5231462;27;20053;-84
2021/03/30 02:59:54;;;;;;;24.67;8.65;;;;;;;;;;5231672;27;20385;-85
2021/03/30 03:02:23;;;;;;;32.70;14.90;;;;;;;;;;5232725;27;20446;-84
2021/03/30 03:04:51;;;;;;;14.82;3.10;;;;;;;;;;5233493;27;20049;-83
2021/03/30 03:07:20;;;;;;;12.63;3.47;;;;;;;;;;5233346;27;20351;-84
2021/03/30 03:09:49;;;;;;;24.08;3.42;;;;;;;;;;5229312;27;20022;-84
2021/03/30 03:12:20;;;;;;;16.67;3.33;;;;;;;;;;5231430;27;20021;-93
2021/03/30 03:15:03;;;;;;;21.65;3.53;;;;;;;;;;5215887;27;20449;-92
2021/03/30 03:17:37;;;;;;;20.20;3.65;;;;;;;;;;5199811;27;20076;-91
2021/03/30 03:20:13;;;;;;;24.52;4.10;;;;;;;;;;5216264;27;20026;-93
2021/03/30 03:22:41;;;;;;;17.23;3.78;;;;;;;;;;5197071;27;20044;-93
2021/03/30 03:25:15;;;;;;;;;;;;;;;;;;5200784;27;20646;-93
2021/03/30 03:27:43;;;;;;;21.08;4.03;;;;;;;;;;5199327;27;20314;-92
2021/03/30 03:30:14;;;;;;;12.95;3.17;;;;;;;;;;5199260;27;20341;-92
2021/03/30 03:32:45;;;;;;;28.05;15.75;;;;;;;;;;5199991;27;20045;-93
2021/03/30 03:35:19;;;;;;;36.05;23.17;;;;;;;;;;5200647;27;20335;-93
2021/03/30 03:37:50;;;;;;;27.42;4.28;;;;;;;;;;5199644;27;20023;-92
2021/03/30 03:40:20;;;;;;;19.73;3.45;;;;;;;;;;5198030;27;20062;-93
2021/03/30 03:42:57;;;;;;;18.15;3.90;;;;;;;;;;5200316;27;20032;-95
2021/03/30 03:45:33;;;;;;;11.98;3.20;;;;;;;;;;5240568;27;20048;-94
2021/03/30 03:48:10;;;;;;;22.40;4.10;;;;;;;;;;5241138;27;20032;-93
2021/03/30 03:50:40;;;;;;;30.90;4.53;;;;;;;;;;5223463;27;20068;-94
2021/03/30 03:53:17;;;;;;;21.30;4.03;;;;;;;;;;5220406;27;20085;-92
2021/03/30 03:55:52;;;;;;;17.12;3.72;;;;;;;;;;5223532;27;20063;-93
2021/03/30 03:58:25;;;;;;;18.58;3.33;;;;;;;;;;5223458;27;20064;-93
2021/03/30 04:00:57;;;;;;;14.68;3.33;;;;;;;;;;5238838;27;20450;-94
2021/03/30 04:03:32;;;;;;;22.58;3.92;;;;;;;;;;5221017;27;20036;-92
2021/03/30 04:06:03;;;;;;;19.73;3.95;;;;;;;;;;5222928;27;20061;-93
2021/03/30 04:08:36;;;;;;;20.67;4.12;;;;;;;;;;5240475;27;20509;-92
2021/03/30 04:11:05;;;;;;;17.73;3.62;;;;;;;;;;5221081;27;20465;-94
2021/03/30 04:13:39;;;;;;;19.55;3.45;;;;;;;;;;5222047;27;20023;-92
2021/03/30 04:16:31;;;;;;;16.15;3.42;;;;;;;;;;5215368;27;20060;-93
2021/03/30 04:19:12;;;;;;;19.77;3.25;;;;;;;;;;5240178;27;20062;-93
2021/03/30 04:21:47;;;;;;;10.55;2.70;;;;;;;;;;5221692;27;20026;-93
2021/03/30 04:24:22;;;;;;;35.95;17.33;;;;;;;;;;5222052;27;20045;-92
2021/03/30 04:26:50;;;;;;;39.45;21.42;;;;;;;;;;5223372;27;20030;-93
2021/03/30 04:29:22;;;;;;;21.65;9.48;;;;;;;;;;5223247;27;20065;-93
2021/03/30 04:31:51;;;;;;;37.30;21.02;;;;;;;;;;5223666;27;20018;-95
2021/03/30 04:34:19;;;;;;;40.10;24.40;;;;;;;;;;5223300;27;20322;-92
2021/03/30 04:36:52;;;;;;;26.25;14.40;;;;;;;;;;5223294;27;20015;-92
2021/03/30 04:39:22;;;;;;;21.98;12.60;;;;;;;;;;5223117;27;20036;-93
2021/03/30 04:41:53;;;;;;;25.62;14.85;;;;;;;;;;5222549;27;20014;-94
2021/03/30 04:44:23;;;;;;;13.40;5.30;;;;;;;;;;5222883;27;20038;-93
2021/03/30 04:47:12;;;;;;;25.77;4.10;;;;;;;;;;5225140;27;20030;-93
2021/03/30 04:49:40;;;;;;;26.75;4.70;;;;;;;;;;5241212;27;20034;-94
2021/03/30 04:52:10;;;;;;;26.83;4.70;;;;;;;;;;5222048;27;20018;-91
2021/03/30 04:54:39;;;;;;;24.48;4.35;;;;;;;;;;5223415;27;20437;-94
2021/03/30 04:57:08;;;;;;;24.37;4.18;;;;;;;;;;5239517;27;20347;-92
2021/03/30 04:59:36;;;;;;;18.58;3.35;;;;;;;;;;5239632;27;20083;-93
2021/03/30 05:02:08;;;;;;;21.67;3.65;;;;;;;;;;5239675;27;20026;-93
2021/03/30 05:04:38;;;;;;;15.50;3.37;;;;;;;;;;5239681;27;20056;-93
2021/03/30 05:07:10;;;;;;;20.42;3.97;;;;;;;;;;5238375;27;20025;-93
2021/03/30 05:09:39;;;;;;;16.25;3.60;;;;;;;;;;5204086;27;20085;-94
2021/03/30 05:12:18;;;;;;;11.40;3.37;;;;;;;;;;5222235;27;20054;-92
2021/03/30 05:14:49;;;;;;;16.05;3.30;;;;;;;;;;5222202;27;20032;-92
2021/03/30 05:17:29;;;;;;;16.58;3.20;;;;;;;;;;5239949;27;20343;-93
2021/03/30 05:19:57;;;;;;;14.35;3.28;;;;;;;;;;5221614;27;20029;-93
2021/03/30 05:22:27;;;;;;;16.65;3.22;;;;;;;;;;5221039;27;20037;-91
2021/03/30 05:25:04;;;;;;;8.45;2.12;;;;;;;;;;5239027;27;20031;-92
2021/03/30 05:27:39;;;;;;;8.70;2.80;;;;;;;;;;5221720;27;20064;-93
2021/03/30 05:30:10;;;;;;;10.25;2.47;;;;;;;;;;5239452;27;20024;-93
2021/03/30 05:32:44;;;;;;;13.73;3.15;;;;;;;;;;5236796;27;20063;-94
2021/03/30 05:35:16;;;;;;;14.27;2.50;;;;;;;;;;5238982;27;20026;-93
2021/03/30 05:37:55;;;;;;;16.98;3.25;;;;;;;;;;5220951;27;20037;-95
2021/03/30 05:40:28;;;;;;;20.55;4.05;;;;;;;;;;5221121;27;20453;-93
2021/03/30 05:42:57;;;;;;;12.15;3.15;;;;;;;;;;5238828;27;20038;-92
2021/03/30 05:45:27;;;;;;;14.18;3.08;;;;;;;;;;5238176;27;20093;-93
2021/03/30 05:48:03;;;;;;;15.95;3.37;;;;;;;;;;5221647;27;20073;-93
2021/03/30 05:50:34;;;;;;;7.55;2.55;;;;;;;;;;5221380;27;20041;-92
2021/03/30 05:53:16;;;;;;;11.60;2.42;;;;;;;;;;5220819;27;20331;-93
2021/03/30 05:55:53;;;;;;;9.70;3.00;;;;;;;;;;5220392;27;20033;-92
2021/03/30 05:58:25;;;;;;;11.55;2.72;;;;;;;;;;5240000;27;20142;-92
2021/03/30 06:00:55;;;;;;;10.68;2.87;;;;;;;;;;5221194;27;20022;-93
2021/03/30 06:03:27;;;;;;;10.82;2.90;;;;;;;;;;5222326;27;20047;-92
2021/03/30 06:06:01;;;;;;;11.70;2.78;;;;;;;;;;5221684;27;20022;-93
2021/03/30 06:08:31;;;;;;;10.30;2.65;;;;;;;;;;5220486;27;20022;-93
2021/03/30 06:11:20;;;;;;;9.93;2.60;;;;;;;;;;5206061;27;20065;-95
2021/03/30 06:13:55;;;;;;;12.18;3.30;;;;;;;;;;5199458;27;20029;-92
2021/03/30 06:16:43;;;;;;;18.12;3.40;;;;;;;;;;5199548;27;20030;-93
2021/03/30 06:19:16;;;;;;;12.85;3.30;;;;;;;;;;5200075;27;20360;-92
2021/03/30 06:22:08;;;;;;;15.57;2.75;;;;;;;;;;5200817;27;20023;-93
2021/03/30 06:24:39;;;;;;;19.10;3.55;;;;;;;;;;5197407;27;20508;-93
2021/03/30 06:27:07;;;;;;;14.15;3.22;;;;;;;;;;5199651;27;20045;-93
2021/03/30 06:29:41;;;;;;;13.52;2.80;;;;;;;;;;5201355;27;20554;-94
2021/03/30 06:32:10;;;;;;;33.40;17.90;;;;;;;;;;5217128;27;20072;-95
2021/03/30 06:34:43;;;;;;;21.35;13.38;;;;;;;;;;5197685;27;20053;-93
2021/03/30 06:37:26;;;;;;;13.10;2.95;;;;;;;;;;5214348;27;20068;-93
2021/03/30 06:39:58;;;;;;;27.85;17.90;;;;;;;;;;5198767;27;20019;-92
2021/03/30 06:42:38;;;;;;;9.65;2.83;;;;;;;;;;5200449;27;20069;-93
2021/03/30 06:45:13;;;;;;;15.40;3.67;;;;;;;;;;5197437;27;20030;-93
2021/03/30 06:47:47;;;;;;;10.88;3.10;;;;;;;;;;5201258;27;20623;-94
2021/03/30 06:50:20;;;;;;;13.85;3.30;;;;;;;;;;5200191;27;20026;-94
2021/03/30 06:52:52;;;;;;;19.40;3.62;;;;;;;;;;5199626;27;20399;-94
2021/03/30 06:55:26;;;;;;;11.00;3.28;;;;;;;;;;5200016;27;20098;-95
2021/03/30 06:58:14;;;;;;;17.62;4.25;;;;;;;;;;5201449;27;20022;-93
2021/03/30 07:00:53;;;;;;;15.63;3.35;;;;;;;;;;5200349;27;20431;-92
2021/03/30 07:03:25;;;;;;;13.98;3.78;;;;;;;;;;5199656;27;20057;-92
2021/03/30 07:05:57;;;;;;;19.90;3.63;;;;;;;;;;5201307;27;20061;-93
2021/03/30 07:08:25;;;;;;;18.85;3.97;;;;;;;;;;5218086;27;20041;-92
2021/03/30 07:10:55;;;;;;;17.92;8.85;;;;;;;;;;5201367;27;20704;-95
2021/03/30 07:13:28;;;;;;;14.45;5.10;;;;;;;;;;5217122;27;20038;-92
2021/03/30 07:16:03;;;;;;;21.65;4.25;;;;;;;;;;5199648;27;20026;-94
2021/03/30 07:18:52;;;;;;;12.75;3.30;;;;;;;;;;5216115;27;20017;-93
2021/03/30 07:21:28;;;;;;;10.07;2.80;;;;;;;;;;5215540;27;20010;-92
2021/03/30 07:24:12;;;;;;;46.22;30.62;;;;;;;;;;5214250;27;20034;-93
2021/03/30 07:26:50;;;;;;;17.55;3.03;;;;;;;;;;5198241;27;20034;-93
2021/03/30 07:29:29;;;;;;;35.42;27.48;;;;;;;;;;5213516;27;20024;-94
2021/03/30 07:32:02;;;;;;;22.05;13.57;;;;;;;;;;5215480;27;20030;-93
2021/03/30 07:34:31;;;;;;;20.92;12.73;;;;;;;;;;5197424;27;20037;-93
2021/03/30 07:37:04;;;;;;;11.20;2.30;;;;;;;;;;5196331;27;20022;-92
2021/03/30 07:39:34;;;;;;;17.60;3.40;;;;;;;;;;5213485;27;20372;-94
2021/03/30 07:42:05;;;;;;;11.10;2.65;;;;;;;;;;5199278;27;20022;-93
2021/03/30 07:44:34;;;;;;;19.98;8.88;;;;;;;;;;5198980;27;20018;-95
2021/03/30 07:47:02;;;;;;;9.55;2.97;;;;;;;;;;5198745;27;20026;-95
2021/03/30 07:49:32;;;;;;;12.40;4.50;;;;;;;;;;5215895;27;20022;-93
2021/03/30 07:52:19;;;;;;;18.05;7.43;;;;;;;;;;5216768;27;20028;-94
2021/03/30 07:55:06;;;;;;;33.10;23.87;;;;;;;;;;5217399;27;20033;-95
2021/03/30 07:57:54;;;;;;;18.73;8.48;;;;;;;;;;5217480;27;20033;-95
2021/03/30 08:00:34;;;;;;;15.30;9.65;;;;;;;;;;5216497;27;20056;-95
2021/03/30 08:03:03;;;;;;;21.83;13.32;;;;;;;;;;5181096;27;20055;-94
2021/03/30 08:05:32;;;;;;;13.18;3.85;;;;;;;;;;5181018;27;20044;-95
2021/03/30 08:08:22;;;;;;;17.17;3.50;;;;;;;;;;5198715;27;20065;-94
2021/03/30 08:10:52;;;;;;;15.52;4.40;;;;;;;;;;5222245;27;20037;-93
2021/03/30 08:13:23;;;;;;;15.48;7.75;;;;;;;;;;5220770;27;20350;-95
2021/03/30 08:16:02;;;;;;;14.98;4.65;;;;;;;;;;5218245;27;20480;-94
2021/03/30 08:18:34;;;;;;;15.20;3.95;;;;;;;;;;5220041;27;20018;-94
2021/03/30 08:21:09;;;;;;;21.90;12.25;;;;;;;;;;5237801;27;20033;-92
2021/03/30 08:23:59;;;;;;;13.55;3.12;;;;;;;;;;5221994;27;20026;-93
2021/03/30 08:26:28;;;;;;;14.35;3.35;;;;;;;;;;5236605;27;20469;-95
2021/03/30 08:29:02;;;;;;;12.60;2.85;;;;;;;;;;5236689;27;20078;-93
2021/03/30 08:31:36;;;;;;;23.02;4.15;;;;;;;;;;5236686;27;20022;-95
2021/03/30 08:34:14;;;;;;;11.95;3.05;;;;;;;;;;5256104;27;20014;-93
2021/03/30 08:36:49;;;;;;;12.15;3.40;;;;;;;;;;5236580;27;20029;-93
2021/03/30 08:39:28;;;;;;;14.10;3.28;;;;;;;;;;5237505;27;20346;-94
2021/03/30 08:41:58;;;;;;;8.55;3.17;;;;;;;;;;5236196;27;20061;-94
2021/03/30 08:44:32;;;;;;;10.52;3.03;;;;;;;;;;5256833;27;20371;-94
2021/03/30 08:47:29;;;;;;;12.98;3.70;;;;;;;;;;5220874;27;20494;-94
2021/03/30 08:50:16;;;;;;;14.68;3.65;;;;;;;;;;5238339;27;20186;-94
2021/03/30 08:52:49;;;;;;;13.85;3.12;;;;;;;;;;5218052;27;20059;-95
2021/03/30 08:55:25;;;;;;;8.38;3.00;;;;;;;;;;5218893;27;20061;-95
2021/03/30 08:57:58;;;;;;;9.27;2.78;;;;;;;;;;5236933;27;20022;-94
2021/03/30 09:00:26;;;;;;;9.43;2.92;;;;;;;;;;5219863;27;20029;-94
2021/03/30 09:03:01;;;;;;;11.98;3.47;;;;;;;;;;5222814;27;20079;-96
2021/03/30 09:05:36;;;;;;;14.07;3.67;;;;;;;;;;5223229;27;20777;-95
2021/03/30 09:08:15;;;;;;;9.98;3.00;;;;;;;;;;5222972;27;20053;-95
2021/03/30 09:10:46;;;;;;;10.10;3.20;;;;;;;;;;5219516;27;20077;-96
2021/03/30 09:13:19;;;;;;;11.75;3.05;;;;;;;;;;5220440;27;20018;-95
2021/03/30 09:15:48;;;;;;;8.38;2.97;;;;;;;;;;5220621;27;20036;-94
2021/03/30 09:18:47;;;;;;;10.80;3.33;;;;;;;;;;5238809;27;20014;-96
2021/03/30 09:21:21;;;;;;;14.07;3.40;;;;;;;;;;5220216;27;20399;-96
2021/03/30 09:23:55;;;;;;;10.68;2.83;;;;;;;;;;5221977;27;20377;-96
2021/03/30 09:26:30;;;;;;;8.10;2.40;;;;;;;;;;5221590;27;20032;-96
2021/03/30 09:29:02;;;;;;;8.55;2.80;;;;;;;;;;5222108;27;20022;-96
2021/03/30 09:31:32;;;;;;;9.85;2.75;;;;;;;;;;5218573;27;20076;-96
2021/03/30 09:34:01;;;;;;;10.43;3.53;;;;;;;;;;5217483;27;20077;-96
2021/03/30 09:36:40;;;;;;;6.90;2.37;;;;;;;;;;5217790;27;20414;-96
2021/03/30 09:39:19;;;;;;;7.70;2.45;;;;;;;;;;5233617;27;20026;-96
2021/03/30 09:41:49;;;;;;;12.98;2.92;;;;;;;;;;5235523;27;20069;-95
2021/03/30 09:44:18;;;;;;;7.22;2.50;;;;;;;;;;5223223;27;20183;-95
2021/03/30 09:46:46;;;;;;;8.82;3.15;;;;;;;;;;5221237;27;20033;-95
2021/03/30 09:49:20;;;;;;;10.13;2.83;;;;;;;;;;5241523;27;20024;-96
2021/03/30 09:51:52;;;;;;;12.05;3.45;;;;;;;;;;5224181;27;20029;-95
2021/03/30 09:54:28;;;;;;;8.70;2.75;;;;;;;;;;5221983;27;20509;-96
2021/03/30 09:56:58;;;;;;;11.73;2.92;;;;;;;;;;5222727;27;20055;-94
2021/03/30 09:59:28;;;;;;;10.10;2.97;;;;;;;;;;5240347;27;20021;-96
2021/03/30 10:01:59;;;;;;;7.93;2.70;;;;;;;;;;5223757;27;20070;-96
2021/03/30 10:04:36;;;;;;;10.13;3.00;;;;;;;;;;5240970;27;20036;-94
2021/03/30 10:07:18;;;;;;;8.80;2.70;;;;;;;;;;5219664;27;20033;-93
2021/03/30 10:10:15;;;;;;;14.90;3.20;;;;;;;;;;5235873;27;20067;-95
2021/03/30 10:13:00;;;;;;;12.65;3.12;;;;;;;;;;5182688;27;20019;-96
2021/03/30 10:15:40;;;;;;;11.75;2.50;;;;;;;;;;5201705;27;20031;-95
2021/03/30 10:18:11;;;;;;;11.57;3.42;;;;;;;;;;5216244;27;20038;-91
2021/03/30 10:20:46;;;;;;;11.48;3.47;;;;;;;;;;5197442;27;20068;-93
2021/03/30 10:23:18;;;;;;;10.93;3.20;;;;;;;;;;5199628;27;20650;-94
2021/03/30 10:25:48;;;;;;;15.13;3.28;;;;;;;;;;5201334;27;20014;-93
2021/03/30 10:28:28;;;;;;;13.93;3.12;;;;;;;;;;5200926;27;20048;-92
2021/03/30 10:31:02;;;;;;;11.82;3.15;;;;;;;;;;5213073;27;20041;-94
2021/03/30 10:33:37;;;;;;;14.35;3.50;;;;;;;;;;5195595;27;20048;-93
2021/03/30 10:36:06;;;;;;;8.55;2.60;;;;;;;;;;5198147;27;20023;-94
2021/03/30 10:39:02;;;;;;;16.83;4.03;;;;;;;;;;5200204;27;20015;-95
2021/03/30 10:41:37;;;;;;;20.58;4.68;;;;;;;;;;5192929;27;20019;-95
2021/03/30 10:44:13;;;;;;;15.15;4.47;;;;;;;;;;5220267;27;20097;-95
2021/03/30 10:46:43;;;;;;;20.98;4.45;;;;;;;;;;5206521;27;20022;-96
2021/03/30 10:49:17;;;;;;;23.02;4.70;;;;;;;;;;5207464;27;20085;-96
2021/03/30 10:51:56;;;;;;;16.30;4.55;;;;;;;;;;5204826;27;20024;-96
2021/03/30 10:54:45;;;;;;;15.73;4.28;;;;;;;;;;5228251;27;20040;-95
2021/03/30 10:57:34;;;;;;;13.62;4.18;;;;;;;;;;5210923;27;20366;-96
2021/03/30 11:00:09;;;;;;;15.63;4.15;;;;;;;;;;5205752;27;20031;-95
2021/03/30 11:02:39;;;;;;;15.63;4.07;;;;;;;;;;5208655;27;20048;-96
2021/03/30 11:05:17;;;;;;;11.25;3.65;;;;;;;;;;5225195;27;20057;-96
2021/03/30 11:08:12;;;;;;;11.75;3.45;;;;;;;;;;5208260;27;20468;-96
2021/03/30 11:10:45;;;;;;;8.70;3.08;;;;;;;;;;5210919;27;20009;-96
2021/03/30 11:13:20;;;;;;;9.02;3.12;;;;;;;;;;5241544;27;20030;-96
2021/03/30 11:15:52;;;;;;;12.20;3.67;;;;;;;;;;5223659;27;20103;-96
2021/03/30 11:18:22;;;;;;;10.38;3.35;;;;;;;;;;5220465;27;20060;-95
2021/03/30 11:20:55;;;;;;;17.35;4.00;;;;;;;;;;5217875;27;20034;-95
2021/03/30 11:23:37;;;;;;;22.60;4.72;;;;;;;;;;5238056;27;20056;-95
2021/03/30 11:26:08;;;;;;;12.82;3.83;;;;;;;;;;5238584;27;20069;-96
2021/03/30 11:28:45;;;;;;;20.37;5.03;;;;;;;;;;5223021;27;20060;-95
2021/03/30 11:31:38;;;;;;;15.40;4.32;;;;;;;;;;5234624;27;20355;-95
2021/03/30 11:37:52;;;;;;;;;;;;;;;;;;5245401;27;20030;-96
2021/03/30 11:39:59;;;;;;;12.18;3.55;;;;;;;;;;5238208;27;19961;-96
2021/03/30 11:42:38;;;;;;;11.35;3.03;;;;;;;;;;5231568;27;20026;-96
2021/03/30 11:48:00;;;;;;;22.80;4.05;;;;;;;;;;5274009;27;20025;-95
2021/03/30 11:50:36;;;;;;;13.40;3.92;;;;;;;;;;5245799;27;20035;-96
2021/03/30 11:53:10;;;;;;;14.45;3.67;;;;;;;;;;5228519;27;20005;-96
2021/03/30 11:56:08;;;;;;;15.23;3.83;;;;;;;;;;5255178;27;20044;-96
2021/03/30 11:58:58;;;;;;;13.07;3.75;;;;;;;;;;5206298;27;20417;-85
2021/03/30 12:01:25;;;;;;;16.65;3.92;;;;;;;;;;5225553;27;20022;-85
2021/03/30 12:03:54;;;;;;;16.70;3.33;;;;;;;;;;5232039;27;20091;-84
2021/03/30 12:06:22;;;;;;;20.60;4.10;;;;;;;;;;5227044;27;20094;-86
2021/03/30 12:08:50;;;;;;;13.75;3.53;;;;;;;;;;5233031;27;20417;-84
2021/03/30 12:11:18;;;;;;;15.70;3.37;;;;;;;;;;5231507;27;20369;-84
2021/03/30 12:13:46;;;;;;;12.98;3.05;;;;;;;;;;5226563;27;20458;-84
2021/03/30 12:16:18;;;;;;;16.80;3.58;;;;;;;;;;5233278;27;20031;-84
2021/03/30 12:18:46;;;;;;;18.00;3.33;;;;;;;;;;5232962;27;20064;-84
2021/03/30 12:21:14;;;;;;;16.45;3.87;;;;;;;;;;5232557;27;20068;-84
2021/03/30 12:23:42;;;;;;;13.43;3.12;;;;;;;;;;5230670;27;20088;-85
2021/03/30 12:26:10;;;;;;;16.77;3.75;;;;;;;;;;5232764;27;20057;-84
2021/03/30 12:28:38;;;;;;;18.85;3.90;;;;;;;;;;5233618;27;20045;-84
2021/03/30 12:31:22;;;;;;;12.10;3.45;;;;;;;;;;5231222;27;20026;-84
2021/03/30 12:33:50;;;;;;;20.37;3.47;;;;;;;;;;5226778;27;20788;-84
2021/03/30 12:36:19;;;;;;;20.83;3.92;;;;;;;;;;5228349;27;20324;-84
2021/03/30 12:38:47;;;;;;;13.43;3.28;;;;;;;;;;5224091;27;20073;-84
2021/03/30 12:41:15;;;;;;;17.05;3.40;;;;;;;;;;5229393;27;20082;-85
2021/03/30 12:43:43;;;;;;;13.68;3.08;;;;;;;;;;5226670;27;20029;-84
2021/03/30 12:46:12;;;;;;;14.07;3.12;;;;;;;;;;5230930;27;20058;-85
2021/03/30 12:48:40;;;;;;;17.52;3.45;;;;;;;;;;5228819;27;20037;-84
2021/03/30 12:51:08;;;;;;;18.45;3.62;;;;;;;;;;5231549;27;20050;-85
2021/03/30 12:53:36;;;;;;;13.48;3.65;;;;;;;;;;5225502;27;20030;-85
2021/03/30 12:56:05;;;;;;;14.77;3.45;;;;;;;;;;5233942;27;20494;-85
2021/03/30 12:58:32;;;;;;;17.85;3.47;;;;;;;;;;5238901;27;20104;-85
2021/03/30 13:01:01;;;;;;;15.07;3.20;;;;;;;;;;5228726;27;20537;-85
2021/03/30 13:03:47;;;;;;;15.15;3.30;;;;;;;;;;5248546;27;20048;-85
2021/03/30 13:06:15;;;;;;;11.80;3.25;;;;;;;;;;5247540;27;20058;-84
2021/03/30 13:08:43;;;;;;;22.23;3.65;;;;;;;;;;5228867;27;20026;-84
2021/03/30 13:11:11;;;;;;;13.50;3.20;;;;;;;;;;5246802;27;20053;-85
2021/03/30 13:13:39;;;;;;;16.42;3.42;;;;;;;;;;5245458;27;20092;-85
2021/03/30 13:16:08;;;;;;;14.07;3.37;;;;;;;;;;5253178;27;20034;-84
2021/03/30 13:18:36;;;;;;;12.77;3.22;;;;;;;;;;5251709;27;20082;-85
2021/03/30 13:21:24;;;;;;;12.55;3.05;;;;;;;;;;5250271;27;20331;-85
2021/03/30 13:23:54;;;;;;;11.15;2.75;;;;;;;;;;5248426;27;20121;-84
2021/03/30 13:26:22;;;;;;;12.13;3.08;;;;;;;;;;5248366;27;20049;-85
2021/03/30 13:28:50;;;;;;;11.15;3.05;;;;;;;;;;5249546;27;20046;-85
2021/03/30 13:31:18;;;;;;;17.17;3.35;;;;;;;;;;5246988;27;20022;-85
2021/03/30 13:33:46;;;;;;;12.50;2.87;;;;;;;;;;5248405;27;20032;-85
2021/03/30 13:36:14;;;;;;;12.95;2.75;;;;;;;;;;5248991;27;20089;-86
2021/03/30 13:38:42;;;;;;;12.77;2.95;;;;;;;;;;5231603;27;20028;-85
2021/03/30 13:41:12;;;;;;;14.07;3.65;;;;;;;;;;5247939;27;20057;-86
2021/03/30 13:43:45;;;;;;;14.87;3.35;;;;;;;;;;5245756;27;20206;-85
2021/03/30 13:46:12;;;;;;;14.27;3.33;;;;;;;;;;5248360;27;20058;-84
2021/03/30 13:48:40;;;;;;;15.57;3.40;;;;;;;;;;5247589;27;20586;-84
2021/03/30 13:51:09;;;;;;;15.13;3.47;;;;;;;;;;5253558;27;20029;-85
2021/03/30 13:53:37;;;;;;;13.50;3.40;;;;;;;;;;5248870;27;20659;-86
2021/03/30 13:56:05;;;;;;;12.57;3.05;;;;;;;;;;5249399;27;20026;-85
2021/03/30 13:58:34;;;;;;;9.05;2.53;;;;;;;;;;5225730;27;20039;-85
2021/03/30 14:01:02;;;;;;;12.43;3.20;;;;;;;;;;5225918;27;20057;-85
2021/03/30 14:03:30;;;;;;;14.80;3.05;;;;;;;;;;5224747;27;20061;-85
2021/03/30 14:05:58;;;;;;;22.65;3.17;;;;;;;;;;5225774;27;20045;-84
2021/03/30 14:08:26;;;;;;;10.75;2.65;;;;;;;;;;5231656;27;20073;-85
2021/03/30 14:10:54;;;;;;;10.60;2.67;;;;;;;;;;5231407;27;20068;-85
2021/03/30 14:13:31;;;;;;;10.15;2.78;;;;;;;;;;5225105;27;20046;-85
2021/03/30 14:16:06;;;;;;;12.70;3.00;;;;;;;;;;5225877;27;20011;-86
2021/03/30 14:19:00;;;;;;;15.20;3.30;;;;;;;;;;5225349;27;20069;-84
2021/03/30 14:24:09;;;;;;;12.27;2.95;;;;;;;;;;5224793;27;20062;-85
2021/03/30 14:26:37;;;;;;;11.93;3.03;;;;;;;;;;5207482;27;20052;-85
2021/03/30 14:29:25;;;;;;;13.02;2.97;;;;;;;;;;5228676;27;20693;-84
2021/03/30 14:32:07;;;;;;;13.50;2.92;;;;;;;;;;5226905;27;20046;-85
2021/03/30 14:34:35;;;;;;;15.10;3.40;;;;;;;;;;5227448;27;20495;-84
2021/03/30 14:37:02;;;;;;;12.95;2.92;;;;;;;;;;5219944;27;20573;-85
2021/03/30 14:39:31;;;;;;;13.88;3.45;;;;;;;;;;5221016;27;20433;-85
2021/03/30 14:42:13;;;;;;;15.15;3.25;;;;;;;;;;5225725;27;20025;-85
2021/03/30 14:45:10;;;;;;;10.93;2.97;;;;;;;;;;5224812;27;20022;-85
2021/03/30 14:53:48;;;;;;;18.90;3.25;;;;;;;;;;5224165;27;20062;-85
2021/03/30 14:56:26;;;;;;;11.88;2.87;;;;;;;;;;5224747;27;20034;-84
2021/03/30 14:59:10;;;;;;;13.73;3.17;;;;;;;;;;5237526;27;20034;-85
2021/03/30 15:04:12;;;;;;;18.50;3.60;;;;;;;;;;5253359;27;20052;-85
2021/03/30 15:06:41;;;;;;;17.58;3.60;;;;;;;;;;5246621;27;20054;-85
2021/03/30 15:09:09;;;;;;;11.82;2.92;;;;;;;;;;5247456;27;20034;-85
2021/03/30 15:11:57;;;;;;;14.90;3.20;;;;;;;;;;5231286;27;20764;-85
2021/03/30 15:14:25;;;;;;;11.00;3.12;;;;;;;;;;5246277;27;20030;-85
2021/03/30 15:16:53;;;;;;;12.63;3.20;;;;;;;;;;5246011;27;20046;-85
2021/03/30 15:19:22;;;;;;;11.27;2.70;;;;;;;;;;5247306;27;20073;-85
2021/03/30 15:21:50;;;;;;;13.85;2.95;;;;;;;;;;5249040;27;20167;-84
2021/03/30 15:24:18;;;;;;;13.90;3.22;;;;;;;;;;5239265;27;20436;-84
2021/03/30 15:26:47;;;;;;;12.35;2.53;;;;;;;;;;5243642;27;20400;-84